sensor_id;sensor_type;location;lat;lon;timestamp;P1;durP1;ratioP1;P2;durP2;ratioP2
74616;SDS011;63123;50.906;4.198;2023-08-31T00:01:40;0.88;;;0.70;;
74616;SDS011;63123;50.906;4.198;2023-08-31T00:04:06;0.80;;;0.60;;
74616;SDS011;63123;50.906;4.198;2023-08-31T00:06:39;1.23;;;0.90;;
74616;SDS011;63123;50.906;4.198;2023-08-31T00:09:05;1.10;;;0.85;;
74616;SDS011;63123;50.906;4.198;2023-08-31T00:11:34;0.70;;;0.70;;
74616;SDS011;63123;50.906;4.198;2023-08-31T00:14:00;1.02;;;0.90;;
74616;SDS011;63123;50.906;4.198;2023-08-31T00:16:26;1.02;;;0.88;;
74616;SDS011;63123;50.906;4.198;2023-08-31T00:18:52;1.33;;;0.73;;
74616;SDS011;63123;50.906;4.198;2023-08-31T00:21:18;1.48;;;0.88;;
74616;SDS011;63123;50.906;4.198;2023-08-31T00:23:43;0.63;;;0.60;;
74616;SDS011;63123;50.906;4.198;2023-08-31T00:26:09;1.15;;;0.75;;
74616;SDS011;63123;50.906;4.198;2023-08-31T00:28:35;1.40;;;0.90;;
74616;SDS011;63123;50.906;4.198;2023-08-31T00:31:01;1.10;;;1.00;;
74616;SDS011;63123;50.906;4.198;2023-08-31T00:33:30;1.20;;;0.73;;
74616;SDS011;63123;50.906;4.198;2023-08-31T00:35:59;0.63;;;0.63;;
74616;SDS011;63123;50.906;4.198;2023-08-31T00:38:28;0.60;;;0.60;;
74616;SDS011;63123;50.906;4.198;2023-08-31T00:40:57;0.65;;;0.60;;
74616;SDS011;63123;50.906;4.198;2023-08-31T00:43:23;0.75;;;0.75;;
74616;SDS011;63123;50.906;4.198;2023-08-31T00:45:49;1.55;;;0.90;;
74616;SDS011;63123;50.906;4.198;2023-08-31T00:48:16;0.98;;;0.75;;
74616;SDS011;63123;50.906;4.198;2023-08-31T00:50:43;0.90;;;0.60;;
74616;SDS011;63123;50.906;4.198;2023-08-31T00:53:10;0.70;;;0.70;;
74616;SDS011;63123;50.906;4.198;2023-08-31T00:55:36;0.95;;;0.60;;
74616;SDS011;63123;50.906;4.198;2023-08-31T00:58:04;0.60;;;0.50;;
74616;SDS011;63123;50.906;4.198;2023-08-31T01:00:47;0.95;;;0.77;;
74616;SDS011;63123;50.906;4.198;2023-08-31T01:03:19;0.63;;;0.60;;
74616;SDS011;63123;50.906;4.198;2023-08-31T01:06:02;0.65;;;0.65;;
74616;SDS011;63123;50.906;4.198;2023-08-31T01:11:29;1.08;;;0.63;;
74616;SDS011;63123;50.906;4.198;2023-08-31T01:14:09;0.90;;;0.70;;
74616;SDS011;63123;50.906;4.198;2023-08-31T01:16:41;0.93;;;0.73;;
74616;SDS011;63123;50.906;4.198;2023-08-31T01:19:14;0.90;;;0.80;;
74616;SDS011;63123;50.906;4.198;2023-08-31T01:24:22;0.75;;;0.55;;
74616;SDS011;63123;50.906;4.198;2023-08-31T01:26:48;1.20;;;1.10;;
74616;SDS011;63123;50.906;4.198;2023-08-31T01:29:14;1.20;;;0.80;;
74616;SDS011;63123;50.906;4.198;2023-08-31T01:31:43;0.73;;;0.70;;
74616;SDS011;63123;50.906;4.198;2023-08-31T01:34:10;1.05;;;0.80;;
74616;SDS011;63123;50.906;4.198;2023-08-31T01:36:36;0.80;;;0.70;;
74616;SDS011;63123;50.906;4.198;2023-08-31T01:39:15;1.15;;;0.82;;
74616;SDS011;63123;50.906;4.198;2023-08-31T01:42:13;0.93;;;0.77;;
74616;SDS011;63123;50.906;4.198;2023-08-31T01:44:41;1.60;;;0.90;;
74616;SDS011;63123;50.906;4.198;2023-08-31T01:47:08;1.02;;;0.80;;
74616;SDS011;63123;50.906;4.198;2023-08-31T01:49:38;0.73;;;0.73;;
74616;SDS011;63123;50.906;4.198;2023-08-31T01:52:04;1.42;;;0.80;;
74616;SDS011;63123;50.906;4.198;2023-08-31T01:54:31;1.63;;;0.77;;
74616;SDS011;63123;50.906;4.198;2023-08-31T01:56:57;0.93;;;0.77;;
74616;SDS011;63123;50.906;4.198;2023-08-31T01:59:23;0.73;;;0.73;;
74616;SDS011;63123;50.906;4.198;2023-08-31T02:01:49;1.48;;;0.73;;
74616;SDS011;63123;50.906;4.198;2023-08-31T02:04:15;1.00;;;0.90;;
74616;SDS011;63123;50.906;4.198;2023-08-31T02:06:41;1.00;;;0.90;;
74616;SDS011;63123;50.906;4.198;2023-08-31T02:09:06;1.02;;;0.77;;
74616;SDS011;63123;50.906;4.198;2023-08-31T02:11:32;0.85;;;0.75;;
74616;SDS011;63123;50.906;4.198;2023-08-31T02:14:01;1.00;;;0.85;;
74616;SDS011;63123;50.906;4.198;2023-08-31T02:16:27;0.80;;;0.68;;
74616;SDS011;63123;50.906;4.198;2023-08-31T02:18:53;0.93;;;0.80;;
74616;SDS011;63123;50.906;4.198;2023-08-31T02:21:18;0.80;;;0.70;;
74616;SDS011;63123;50.906;4.198;2023-08-31T02:23:45;1.00;;;1.00;;
74616;SDS011;63123;50.906;4.198;2023-08-31T02:26:11;1.00;;;0.90;;
74616;SDS011;63123;50.906;4.198;2023-08-31T02:28:36;0.77;;;0.60;;
74616;SDS011;63123;50.906;4.198;2023-08-31T02:31:02;1.23;;;0.90;;
74616;SDS011;63123;50.906;4.198;2023-08-31T02:33:28;1.00;;;0.90;;
74616;SDS011;63123;50.906;4.198;2023-08-31T02:35:54;0.90;;;0.70;;
74616;SDS011;63123;50.906;4.198;2023-08-31T02:38:20;1.08;;;0.90;;
74616;SDS011;63123;50.906;4.198;2023-08-31T02:40:46;0.90;;;0.73;;
74616;SDS011;63123;50.906;4.198;2023-08-31T02:43:12;0.80;;;0.80;;
74616;SDS011;63123;50.906;4.198;2023-08-31T02:45:38;0.93;;;0.93;;
74616;SDS011;63123;50.906;4.198;2023-08-31T02:48:06;1.00;;;0.90;;
74616;SDS011;63123;50.906;4.198;2023-08-31T02:50:33;0.98;;;0.80;;
74616;SDS011;63123;50.906;4.198;2023-08-31T02:52:59;1.13;;;1.02;;
74616;SDS011;63123;50.906;4.198;2023-08-31T02:55:25;1.00;;;0.80;;
74616;SDS011;63123;50.906;4.198;2023-08-31T02:57:51;0.98;;;0.80;;
74616;SDS011;63123;50.906;4.198;2023-08-31T03:00:16;1.63;;;0.85;;
74616;SDS011;63123;50.906;4.198;2023-08-31T03:02:46;0.85;;;0.75;;
74616;SDS011;63123;50.906;4.198;2023-08-31T03:05:12;0.93;;;0.70;;
74616;SDS011;63123;50.906;4.198;2023-08-31T03:07:38;0.93;;;0.82;;
74616;SDS011;63123;50.906;4.198;2023-08-31T03:10:04;1.10;;;0.85;;
74616;SDS011;63123;50.906;4.198;2023-08-31T03:12:30;1.08;;;0.73;;
74616;SDS011;63123;50.906;4.198;2023-08-31T03:14:56;1.00;;;0.90;;
74616;SDS011;63123;50.906;4.198;2023-08-31T03:17:21;1.10;;;0.90;;
74616;SDS011;63123;50.906;4.198;2023-08-31T03:19:47;0.60;;;0.60;;
74616;SDS011;63123;50.906;4.198;2023-08-31T03:22:14;1.00;;;0.80;;
74616;SDS011;63123;50.906;4.198;2023-08-31T03:24:39;0.68;;;0.60;;
74616;SDS011;63123;50.906;4.198;2023-08-31T03:27:05;1.00;;;0.68;;
74616;SDS011;63123;50.906;4.198;2023-08-31T03:29:30;1.23;;;0.95;;
74616;SDS011;63123;50.906;4.198;2023-08-31T03:31:57;0.70;;;0.70;;
74616;SDS011;63123;50.906;4.198;2023-08-31T03:34:28;0.73;;;0.73;;
74616;SDS011;63123;50.906;4.198;2023-08-31T03:36:57;1.00;;;0.95;;
74616;SDS011;63123;50.906;4.198;2023-08-31T03:39:24;0.98;;;0.77;;
74616;SDS011;63123;50.906;4.198;2023-08-31T03:41:50;0.90;;;0.90;;
74616;SDS011;63123;50.906;4.198;2023-08-31T03:44:15;0.90;;;0.63;;
74616;SDS011;63123;50.906;4.198;2023-08-31T03:46:42;1.02;;;0.93;;
74616;SDS011;63123;50.906;4.198;2023-08-31T03:49:07;1.08;;;0.80;;
74616;SDS011;63123;50.906;4.198;2023-08-31T03:51:33;1.10;;;0.90;;
74616;SDS011;63123;50.906;4.198;2023-08-31T03:53:59;1.27;;;0.93;;
74616;SDS011;63123;50.906;4.198;2023-08-31T03:56:25;0.95;;;0.75;;
74616;SDS011;63123;50.906;4.198;2023-08-31T03:58:51;0.75;;;0.75;;
74616;SDS011;63123;50.906;4.198;2023-08-31T04:01:17;0.95;;;0.80;;
74616;SDS011;63123;50.906;4.198;2023-08-31T04:03:43;1.20;;;0.95;;
74616;SDS011;63123;50.906;4.198;2023-08-31T04:06:08;1.10;;;0.88;;
74616;SDS011;63123;50.906;4.198;2023-08-31T04:08:34;0.70;;;0.70;;
74616;SDS011;63123;50.906;4.198;2023-08-31T04:11:00;0.77;;;0.77;;
74616;SDS011;63123;50.906;4.198;2023-08-31T04:13:25;0.88;;;0.70;;
74616;SDS011;63123;50.906;4.198;2023-08-31T04:15:52;1.02;;;0.85;;
74616;SDS011;63123;50.906;4.198;2023-08-31T04:18:17;1.10;;;0.95;;
74616;SDS011;63123;50.906;4.198;2023-08-31T04:20:50;1.00;;;0.80;;
74616;SDS011;63123;50.906;4.198;2023-08-31T04:23:17;1.02;;;0.93;;
74616;SDS011;63123;50.906;4.198;2023-08-31T04:25:43;1.10;;;1.00;;
74616;SDS011;63123;50.906;4.198;2023-08-31T04:28:08;1.30;;;1.10;;
74616;SDS011;63123;50.906;4.198;2023-08-31T04:30:34;1.05;;;0.80;;
74616;SDS011;63123;50.906;4.198;2023-08-31T04:33:00;1.30;;;0.90;;
74616;SDS011;63123;50.906;4.198;2023-08-31T04:35:25;1.10;;;0.93;;
74616;SDS011;63123;50.906;4.198;2023-08-31T04:37:52;1.20;;;0.90;;
74616;SDS011;63123;50.906;4.198;2023-08-31T04:40:17;0.70;;;0.70;;
74616;SDS011;63123;50.906;4.198;2023-08-31T04:42:43;1.15;;;1.05;;
74616;SDS011;63123;50.906;4.198;2023-08-31T04:45:09;1.15;;;0.80;;
74616;SDS011;63123;50.906;4.198;2023-08-31T04:47:36;0.70;;;0.70;;
74616;SDS011;63123;50.906;4.198;2023-08-31T04:50:02;1.10;;;1.00;;
74616;SDS011;63123;50.906;4.198;2023-08-31T04:52:28;0.88;;;0.85;;
74616;SDS011;63123;50.906;4.198;2023-08-31T04:54:54;1.20;;;1.05;;
74616;SDS011;63123;50.906;4.198;2023-08-31T04:57:19;1.25;;;0.95;;
74616;SDS011;63123;50.906;4.198;2023-08-31T04:59:45;0.90;;;0.90;;
74616;SDS011;63123;50.906;4.198;2023-08-31T05:02:11;1.10;;;0.80;;
74616;SDS011;63123;50.906;4.198;2023-08-31T05:04:36;1.20;;;0.90;;
74616;SDS011;63123;50.906;4.198;2023-08-31T05:07:02;1.13;;;0.93;;
74616;SDS011;63123;50.906;4.198;2023-08-31T05:09:28;1.10;;;1.00;;
74616;SDS011;63123;50.906;4.198;2023-08-31T05:11:57;0.75;;;0.65;;
74616;SDS011;63123;50.906;4.198;2023-08-31T05:14:23;0.95;;;0.90;;
74616;SDS011;63123;50.906;4.198;2023-08-31T05:16:50;1.15;;;0.80;;
74616;SDS011;63123;50.906;4.198;2023-08-31T05:19:15;0.70;;;0.70;;
74616;SDS011;63123;50.906;4.198;2023-08-31T05:21:41;1.42;;;0.77;;
74616;SDS011;63123;50.906;4.198;2023-08-31T05:24:06;0.77;;;0.70;;
74616;SDS011;63123;50.906;4.198;2023-08-31T05:26:32;1.15;;;0.80;;
74616;SDS011;63123;50.906;4.198;2023-08-31T05:28:59;1.02;;;0.93;;
74616;SDS011;63123;50.906;4.198;2023-08-31T05:31:24;1.05;;;0.73;;
74616;SDS011;63123;50.906;4.198;2023-08-31T05:33:50;0.90;;;0.70;;
74616;SDS011;63123;50.906;4.198;2023-08-31T05:36:16;0.80;;;0.70;;
74616;SDS011;63123;50.906;4.198;2023-08-31T05:38:41;1.35;;;0.73;;
74616;SDS011;63123;50.906;4.198;2023-08-31T05:41:07;0.80;;;0.70;;
74616;SDS011;63123;50.906;4.198;2023-08-31T05:43:34;0.85;;;0.50;;
74616;SDS011;63123;50.906;4.198;2023-08-31T05:46:01;0.73;;;0.68;;
74616;SDS011;63123;50.906;4.198;2023-08-31T05:48:27;1.15;;;0.75;;
74616;SDS011;63123;50.906;4.198;2023-08-31T05:50:53;0.80;;;0.80;;
74616;SDS011;63123;50.906;4.198;2023-08-31T05:53:20;0.70;;;0.70;;
74616;SDS011;63123;50.906;4.198;2023-08-31T05:55:46;1.25;;;0.80;;
74616;SDS011;63123;50.906;4.198;2023-08-31T05:58:12;1.30;;;1.00;;
74616;SDS011;63123;50.906;4.198;2023-08-31T06:00:37;0.95;;;0.77;;
74616;SDS011;63123;50.906;4.198;2023-08-31T06:03:03;1.48;;;1.15;;
74616;SDS011;63123;50.906;4.198;2023-08-31T06:05:30;0.82;;;0.70;;
74616;SDS011;63123;50.906;4.198;2023-08-31T06:07:57;1.35;;;0.85;;
74616;SDS011;63123;50.906;4.198;2023-08-31T06:10:23;0.70;;;0.70;;
74616;SDS011;63123;50.906;4.198;2023-08-31T06:12:49;1.38;;;1.00;;
74616;SDS011;63123;50.906;4.198;2023-08-31T06:15:15;0.90;;;0.90;;
74616;SDS011;63123;50.906;4.198;2023-08-31T06:17:42;1.00;;;0.88;;
74616;SDS011;63123;50.906;4.198;2023-08-31T06:20:08;0.80;;;0.65;;
74616;SDS011;63123;50.906;4.198;2023-08-31T06:22:34;1.33;;;0.70;;
74616;SDS011;63123;50.906;4.198;2023-08-31T06:25:00;0.80;;;0.60;;
74616;SDS011;63123;50.906;4.198;2023-08-31T06:27:26;0.80;;;0.80;;
74616;SDS011;63123;50.906;4.198;2023-08-31T06:29:51;0.70;;;0.70;;
74616;SDS011;63123;50.906;4.198;2023-08-31T06:32:17;1.27;;;0.70;;
74616;SDS011;63123;50.906;4.198;2023-08-31T06:34:43;1.25;;;0.93;;
74616;SDS011;63123;50.906;4.198;2023-08-31T06:37:09;1.00;;;0.80;;
74616;SDS011;63123;50.906;4.198;2023-08-31T06:39:35;1.45;;;0.80;;
74616;SDS011;63123;50.906;4.198;2023-08-31T06:42:01;1.25;;;1.10;;
74616;SDS011;63123;50.906;4.198;2023-08-31T06:44:28;1.38;;;0.73;;
74616;SDS011;63123;50.906;4.198;2023-08-31T06:46:55;1.13;;;0.90;;
74616;SDS011;63123;50.906;4.198;2023-08-31T06:49:21;1.55;;;0.88;;
74616;SDS011;63123;50.906;4.198;2023-08-31T06:51:48;1.30;;;0.93;;
74616;SDS011;63123;50.906;4.198;2023-08-31T06:54:13;0.85;;;0.65;;
74616;SDS011;63123;50.906;4.198;2023-08-31T06:56:39;1.20;;;0.73;;
74616;SDS011;63123;50.906;4.198;2023-08-31T06:59:05;0.90;;;0.70;;
74616;SDS011;63123;50.906;4.198;2023-08-31T07:01:31;0.93;;;0.70;;
74616;SDS011;63123;50.906;4.198;2023-08-31T07:03:58;1.42;;;0.75;;
74616;SDS011;63123;50.906;4.198;2023-08-31T07:06:23;1.10;;;0.80;;
74616;SDS011;63123;50.906;4.198;2023-08-31T07:08:49;1.08;;;0.80;;
74616;SDS011;63123;50.906;4.198;2023-08-31T07:11:15;0.88;;;0.70;;
74616;SDS011;63123;50.906;4.198;2023-08-31T07:13:41;1.45;;;0.80;;
74616;SDS011;63123;50.906;4.198;2023-08-31T07:16:07;1.10;;;1.00;;
74616;SDS011;63123;50.906;4.198;2023-08-31T07:18:32;1.20;;;1.00;;
74616;SDS011;63123;50.906;4.198;2023-08-31T07:20:58;0.73;;;0.70;;
74616;SDS011;63123;50.906;4.198;2023-08-31T07:23:24;0.90;;;0.75;;
74616;SDS011;63123;50.906;4.198;2023-08-31T07:25:49;1.35;;;0.70;;
74616;SDS011;63123;50.906;4.198;2023-08-31T07:28:15;1.10;;;0.80;;
74616;SDS011;63123;50.906;4.198;2023-08-31T07:30:41;1.45;;;1.20;;
74616;SDS011;63123;50.906;4.198;2023-08-31T07:33:06;1.23;;;0.70;;
74616;SDS011;63123;50.906;4.198;2023-08-31T07:35:32;1.30;;;0.90;;
74616;SDS011;63123;50.906;4.198;2023-08-31T07:37:58;1.30;;;1.20;;
74616;SDS011;63123;50.906;4.198;2023-08-31T07:40:24;1.00;;;0.80;;
74616;SDS011;63123;50.906;4.198;2023-08-31T07:42:50;1.50;;;1.00;;
74616;SDS011;63123;50.906;4.198;2023-08-31T07:45:16;0.85;;;0.80;;
74616;SDS011;63123;50.906;4.198;2023-08-31T07:47:42;1.02;;;0.90;;
74616;SDS011;63123;50.906;4.198;2023-08-31T07:50:08;2.65;;;1.10;;
74616;SDS011;63123;50.906;4.198;2023-08-31T07:52:34;1.27;;;1.00;;
74616;SDS011;63123;50.906;4.198;2023-08-31T07:55:00;1.23;;;0.93;;
74616;SDS011;63123;50.906;4.198;2023-08-31T07:57:26;1.10;;;0.90;;
74616;SDS011;63123;50.906;4.198;2023-08-31T07:59:51;1.67;;;1.20;;
74616;SDS011;63123;50.906;4.198;2023-08-31T08:02:17;2.00;;;1.17;;
74616;SDS011;63123;50.906;4.198;2023-08-31T08:04:45;1.38;;;1.00;;
74616;SDS011;63123;50.906;4.198;2023-08-31T08:07:11;1.48;;;1.08;;
74616;SDS011;63123;50.906;4.198;2023-08-31T08:09:37;1.35;;;1.10;;
74616;SDS011;63123;50.906;4.198;2023-08-31T08:12:02;1.17;;;1.08;;
74616;SDS011;63123;50.906;4.198;2023-08-31T08:14:29;1.63;;;1.20;;
74616;SDS011;63123;50.906;4.198;2023-08-31T08:16:54;1.25;;;0.90;;
74616;SDS011;63123;50.906;4.198;2023-08-31T08:19:23;2.47;;;1.00;;
74616;SDS011;63123;50.906;4.198;2023-08-31T08:21:52;1.45;;;0.90;;
74616;SDS011;63123;50.906;4.198;2023-08-31T08:24:18;1.17;;;1.00;;
74616;SDS011;63123;50.906;4.198;2023-08-31T08:26:43;1.52;;;1.02;;
74616;SDS011;63123;50.906;4.198;2023-08-31T08:29:09;1.23;;;1.00;;
74616;SDS011;63123;50.906;4.198;2023-08-31T08:31:35;1.60;;;1.02;;
74616;SDS011;63123;50.906;4.198;2023-08-31T08:34:00;1.63;;;1.00;;
74616;SDS011;63123;50.906;4.198;2023-08-31T08:36:26;1.20;;;0.90;;
74616;SDS011;63123;50.906;4.198;2023-08-31T08:38:52;0.75;;;0.70;;
74616;SDS011;63123;50.906;4.198;2023-08-31T08:41:18;1.55;;;0.98;;
74616;SDS011;63123;50.906;4.198;2023-08-31T08:43:47;1.25;;;1.10;;
74616;SDS011;63123;50.906;4.198;2023-08-31T08:46:15;2.28;;;1.35;;
74616;SDS011;63123;50.906;4.198;2023-08-31T08:48:41;1.85;;;1.33;;
74616;SDS011;63123;50.906;4.198;2023-08-31T08:51:07;1.23;;;1.13;;
74616;SDS011;63123;50.906;4.198;2023-08-31T08:53:35;1.52;;;1.25;;
74616;SDS011;63123;50.906;4.198;2023-08-31T08:56:02;1.73;;;1.27;;
74616;SDS011;63123;50.906;4.198;2023-08-31T08:58:29;2.30;;;1.20;;
74616;SDS011;63123;50.906;4.198;2023-08-31T09:00:54;1.75;;;1.25;;
74616;SDS011;63123;50.906;4.198;2023-08-31T09:03:23;1.42;;;1.15;;
74616;SDS011;63123;50.906;4.198;2023-08-31T09:05:52;1.67;;;1.10;;
74616;SDS011;63123;50.906;4.198;2023-08-31T09:08:18;1.52;;;1.20;;
74616;SDS011;63123;50.906;4.198;2023-08-31T09:10:51;1.70;;;1.23;;
74616;SDS011;63123;50.906;4.198;2023-08-31T09:13:17;1.33;;;1.00;;
74616;SDS011;63123;50.906;4.198;2023-08-31T09:20:46;1.92;;;1.30;;
74616;SDS011;63123;50.906;4.198;2023-08-31T09:23:13;2.20;;;1.40;;
74616;SDS011;63123;50.906;4.198;2023-08-31T09:25:45;1.55;;;1.27;;
74616;SDS011;63123;50.906;4.198;2023-08-31T09:28:14;1.98;;;1.17;;
74616;SDS011;63123;50.906;4.198;2023-08-31T09:30:45;1.83;;;1.27;;
74616;SDS011;63123;50.906;4.198;2023-08-31T09:33:13;1.75;;;1.30;;
74616;SDS011;63123;50.906;4.198;2023-08-31T09:35:46;1.65;;;1.20;;
74616;SDS011;63123;50.906;4.198;2023-08-31T09:38:16;2.15;;;1.55;;
74616;SDS011;63123;50.906;4.198;2023-08-31T09:40:42;1.55;;;1.30;;
74616;SDS011;63123;50.906;4.198;2023-08-31T09:43:08;1.42;;;1.30;;
74616;SDS011;63123;50.906;4.198;2023-08-31T09:45:34;2.28;;;1.30;;
74616;SDS011;63123;50.906;4.198;2023-08-31T09:48:02;1.40;;;1.02;;
74616;SDS011;63123;50.906;4.198;2023-08-31T09:50:29;2.05;;;1.50;;
74616;SDS011;63123;50.906;4.198;2023-08-31T09:52:58;1.98;;;1.58;;
74616;SDS011;63123;50.906;4.198;2023-08-31T09:55:28;2.50;;;1.17;;
74616;SDS011;63123;50.906;4.198;2023-08-31T09:57:56;2.22;;;1.75;;
74616;SDS011;63123;50.906;4.198;2023-08-31T10:00:26;1.58;;;1.48;;
74616;SDS011;63123;50.906;4.198;2023-08-31T10:02:54;2.00;;;1.25;;
74616;SDS011;63123;50.906;4.198;2023-08-31T10:05:22;1.95;;;1.35;;
74616;SDS011;63123;50.906;4.198;2023-08-31T10:07:49;1.90;;;1.42;;
74616;SDS011;63123;50.906;4.198;2023-08-31T10:10:15;1.90;;;1.35;;
74616;SDS011;63123;50.906;4.198;2023-08-31T10:12:41;1.48;;;1.38;;
74616;SDS011;63123;50.906;4.198;2023-08-31T10:15:09;2.88;;;1.80;;
74616;SDS011;63123;50.906;4.198;2023-08-31T10:17:35;1.70;;;1.35;;
74616;SDS011;63123;50.906;4.198;2023-08-31T10:20:01;2.58;;;1.38;;
74616;SDS011;63123;50.906;4.198;2023-08-31T10:22:28;2.38;;;1.27;;
74616;SDS011;63123;50.906;4.198;2023-08-31T10:24:58;3.03;;;1.50;;
74616;SDS011;63123;50.906;4.198;2023-08-31T10:27:35;2.50;;;1.70;;
74616;SDS011;63123;50.906;4.198;2023-08-31T10:30:14;2.38;;;1.60;;
74616;SDS011;63123;50.906;4.198;2023-08-31T10:32:46;1.48;;;1.30;;
74616;SDS011;63123;50.906;4.198;2023-08-31T10:43:45;1.40;;;1.23;;
74616;SDS011;63123;50.906;4.198;2023-08-31T10:49:14;1.65;;;1.55;;
74616;SDS011;63123;50.906;4.198;2023-08-31T10:51:42;2.65;;;1.77;;
74616;SDS011;63123;50.906;4.198;2023-08-31T10:54:31;2.10;;;1.75;;
74616;SDS011;63123;50.906;4.198;2023-08-31T10:57:01;1.42;;;1.33;;
74616;SDS011;63123;50.906;4.198;2023-08-31T11:02:09;1.98;;;1.35;;
74616;SDS011;63123;50.906;4.198;2023-08-31T11:04:52;1.65;;;1.52;;
74616;SDS011;63123;50.906;4.198;2023-08-31T11:07:26;2.40;;;1.50;;
74616;SDS011;63123;50.906;4.198;2023-08-31T11:10:05;1.60;;;1.50;;
74616;SDS011;63123;50.906;4.198;2023-08-31T11:12:48;1.95;;;1.48;;
74616;SDS011;63123;50.906;4.198;2023-08-31T11:15:16;1.50;;;1.40;;
74616;SDS011;63123;50.906;4.198;2023-08-31T11:17:43;1.55;;;1.38;;
74616;SDS011;63123;50.906;4.198;2023-08-31T11:20:15;1.77;;;1.30;;
74616;SDS011;63123;50.906;4.198;2023-08-31T11:22:42;1.63;;;1.52;;
74616;SDS011;63123;50.906;4.198;2023-08-31T11:25:09;2.65;;;1.52;;
74616;SDS011;63123;50.906;4.198;2023-08-31T11:27:37;2.85;;;1.80;;
74616;SDS011;63123;50.906;4.198;2023-08-31T11:30:03;2.35;;;1.50;;
74616;SDS011;63123;50.906;4.198;2023-08-31T11:32:46;1.70;;;1.27;;
74616;SDS011;63123;50.906;4.198;2023-08-31T11:35:13;1.80;;;1.63;;
74616;SDS011;63123;50.906;4.198;2023-08-31T11:37:41;2.83;;;1.95;;
74616;SDS011;63123;50.906;4.198;2023-08-31T11:40:07;1.70;;;1.60;;
74616;SDS011;63123;50.906;4.198;2023-08-31T11:42:34;1.65;;;1.55;;
74616;SDS011;63123;50.906;4.198;2023-08-31T11:45:00;2.13;;;1.50;;
74616;SDS011;63123;50.906;4.198;2023-08-31T11:47:26;1.63;;;1.40;;
74616;SDS011;63123;50.906;4.198;2023-08-31T11:49:52;2.13;;;1.92;;
74616;SDS011;63123;50.906;4.198;2023-08-31T11:52:18;1.73;;;1.30;;
74616;SDS011;63123;50.906;4.198;2023-08-31T11:54:44;1.80;;;1.58;;
74616;SDS011;63123;50.906;4.198;2023-08-31T11:57:11;1.65;;;1.40;;
74616;SDS011;63123;50.906;4.198;2023-08-31T11:59:37;1.90;;;1.33;;
74616;SDS011;63123;50.906;4.198;2023-08-31T12:02:07;1.55;;;1.23;;
74616;SDS011;63123;50.906;4.198;2023-08-31T12:04:33;3.35;;;2.05;;
74616;SDS011;63123;50.906;4.198;2023-08-31T12:07:07;1.40;;;1.30;;
74616;SDS011;63123;50.906;4.198;2023-08-31T12:09:33;1.80;;;1.70;;
74616;SDS011;63123;50.906;4.198;2023-08-31T12:11:58;1.70;;;1.23;;
74616;SDS011;63123;50.906;4.198;2023-08-31T12:14:25;1.60;;;1.42;;
74616;SDS011;63123;50.906;4.198;2023-08-31T12:16:53;1.60;;;1.50;;
74616;SDS011;63123;50.906;4.198;2023-08-31T12:19:29;1.55;;;1.42;;
74616;SDS011;63123;50.906;4.198;2023-08-31T12:21:56;2.40;;;1.30;;
74616;SDS011;63123;50.906;4.198;2023-08-31T12:24:22;1.55;;;1.42;;
74616;SDS011;63123;50.906;4.198;2023-08-31T12:26:48;1.92;;;1.27;;
74616;SDS011;63123;50.906;4.198;2023-08-31T12:29:14;1.40;;;1.30;;
74616;SDS011;63123;50.906;4.198;2023-08-31T12:31:40;1.60;;;1.50;;
74616;SDS011;63123;50.906;4.198;2023-08-31T12:34:06;2.10;;;1.50;;
74616;SDS011;63123;50.906;4.198;2023-08-31T12:36:34;1.45;;;1.20;;
74616;SDS011;63123;50.906;4.198;2023-08-31T12:39:02;1.60;;;1.40;;
74616;SDS011;63123;50.906;4.198;2023-08-31T12:41:34;1.42;;;1.27;;
74616;SDS011;63123;50.906;4.198;2023-08-31T12:44:01;1.33;;;1.20;;
74616;SDS011;63123;50.906;4.198;2023-08-31T12:46:28;2.00;;;1.80;;
74616;SDS011;63123;50.906;4.198;2023-08-31T12:48:54;2.22;;;1.58;;
74616;SDS011;63123;50.906;4.198;2023-08-31T12:51:20;1.95;;;1.60;;
74616;SDS011;63123;50.906;4.198;2023-08-31T12:53:45;1.58;;;1.23;;
74616;SDS011;63123;50.906;4.198;2023-08-31T12:56:11;1.85;;;1.45;;
74616;SDS011;63123;50.906;4.198;2023-08-31T12:58:38;2.47;;;1.70;;
74616;SDS011;63123;50.906;4.198;2023-08-31T13:01:04;2.25;;;1.60;;
74616;SDS011;63123;50.906;4.198;2023-08-31T13:03:29;1.92;;;1.13;;
74616;SDS011;63123;50.906;4.198;2023-08-31T13:05:55;1.95;;;1.25;;
74616;SDS011;63123;50.906;4.198;2023-08-31T13:08:21;1.58;;;1.40;;
74616;SDS011;63123;50.906;4.198;2023-08-31T13:10:53;1.30;;;1.20;;
74616;SDS011;63123;50.906;4.198;2023-08-31T13:13:19;1.35;;;1.25;;
74616;SDS011;63123;50.906;4.198;2023-08-31T13:15:48;1.58;;;1.40;;
74616;SDS011;63123;50.906;4.198;2023-08-31T13:18:14;1.63;;;1.20;;
74616;SDS011;63123;50.906;4.198;2023-08-31T13:20:40;1.30;;;1.08;;
74616;SDS011;63123;50.906;4.198;2023-08-31T13:23:06;1.30;;;1.10;;
74616;SDS011;63123;50.906;4.198;2023-08-31T13:25:32;2.40;;;1.40;;
74616;SDS011;63123;50.906;4.198;2023-08-31T13:27:58;1.90;;;1.33;;
74616;SDS011;63123;50.906;4.198;2023-08-31T13:30:23;1.48;;;1.20;;
74616;SDS011;63123;50.906;4.198;2023-08-31T13:32:49;2.85;;;1.30;;
74616;SDS011;63123;50.906;4.198;2023-08-31T13:35:15;2.03;;;1.45;;
74616;SDS011;63123;50.906;4.198;2023-08-31T13:37:41;1.50;;;1.40;;
74616;SDS011;63123;50.906;4.198;2023-08-31T13:40:07;1.88;;;1.27;;
74616;SDS011;63123;50.906;4.198;2023-08-31T13:42:34;1.42;;;1.30;;
74616;SDS011;63123;50.906;4.198;2023-08-31T13:45:03;1.33;;;1.23;;
74616;SDS011;63123;50.906;4.198;2023-08-31T13:47:32;1.48;;;1.15;;
74616;SDS011;63123;50.906;4.198;2023-08-31T13:49:58;1.88;;;1.38;;
74616;SDS011;63123;50.906;4.198;2023-08-31T13:52:24;1.88;;;1.30;;
74616;SDS011;63123;50.906;4.198;2023-08-31T13:54:50;1.90;;;1.30;;
74616;SDS011;63123;50.906;4.198;2023-08-31T13:57:15;1.88;;;1.40;;
74616;SDS011;63123;50.906;4.198;2023-08-31T13:59:42;1.67;;;1.20;;
74616;SDS011;63123;50.906;4.198;2023-08-31T14:02:11;1.42;;;1.20;;
74616;SDS011;63123;50.906;4.198;2023-08-31T14:04:37;2.85;;;1.35;;
74616;SDS011;63123;50.906;4.198;2023-08-31T14:07:02;2.08;;;1.60;;
74616;SDS011;63123;50.906;4.198;2023-08-31T14:09:29;1.80;;;1.20;;
74616;SDS011;63123;50.906;4.198;2023-08-31T14:11:54;1.30;;;1.10;;
74616;SDS011;63123;50.906;4.198;2023-08-31T14:14:22;1.42;;;1.25;;
74616;SDS011;63123;50.906;4.198;2023-08-31T14:16:48;1.33;;;1.23;;
74616;SDS011;63123;50.906;4.198;2023-08-31T14:19:14;3.85;;;1.33;;
74616;SDS011;63123;50.906;4.198;2023-08-31T14:21:40;1.60;;;1.45;;
74616;SDS011;63123;50.906;4.198;2023-08-31T14:24:06;1.10;;;1.00;;
74616;SDS011;63123;50.906;4.198;2023-08-31T14:26:32;2.15;;;1.60;;
74616;SDS011;63123;50.906;4.198;2023-08-31T14:28:58;1.33;;;1.05;;
74616;SDS011;63123;50.906;4.198;2023-08-31T14:31:23;1.95;;;1.58;;
74616;SDS011;63123;50.906;4.198;2023-08-31T14:33:49;1.70;;;1.20;;
74616;SDS011;63123;50.906;4.198;2023-08-31T14:36:17;1.58;;;1.40;;
74616;SDS011;63123;50.906;4.198;2023-08-31T14:38:42;1.58;;;1.40;;
74616;SDS011;63123;50.906;4.198;2023-08-31T14:41:08;1.90;;;1.75;;
74616;SDS011;63123;50.906;4.198;2023-08-31T14:43:34;1.52;;;1.27;;
74616;SDS011;63123;50.906;4.198;2023-08-31T14:46:00;1.58;;;1.27;;
74616;SDS011;63123;50.906;4.198;2023-08-31T14:48:29;1.40;;;1.23;;
74616;SDS011;63123;50.906;4.198;2023-08-31T14:50:55;2.05;;;1.35;;
74616;SDS011;63123;50.906;4.198;2023-08-31T14:53:23;2.15;;;1.27;;
74616;SDS011;63123;50.906;4.198;2023-08-31T14:55:49;2.00;;;1.40;;
74616;SDS011;63123;50.906;4.198;2023-08-31T14:58:15;1.50;;;1.20;;
74616;SDS011;63123;50.906;4.198;2023-08-31T15:00:41;2.30;;;1.40;;
74616;SDS011;63123;50.906;4.198;2023-08-31T15:03:06;2.78;;;1.63;;
74616;SDS011;63123;50.906;4.198;2023-08-31T15:05:32;2.05;;;1.40;;
74616;SDS011;63123;50.906;4.198;2023-08-31T15:07:59;2.40;;;1.40;;
74616;SDS011;63123;50.906;4.198;2023-08-31T15:10:26;2.90;;;1.63;;
74616;SDS011;63123;50.906;4.198;2023-08-31T15:12:52;2.47;;;1.58;;